Time;durP1;ratioP1;P1;durP2;ratioP2;P2;SDS_P1;SDS_P2;PMS_P1;PMS_P2;Temp;Humidity;BMP_temperature;BMP_pressure;BME280_temperature;BME280_humidity;BME280_pressure;Samples;Min_cycle;Max_cycle;Signal;HPM_P1;HPM_P2
2023/03/21 06:52:02;;;;;;;107.38;74.45;;;;;;;19.92;50.33;101184.13;5110157;27;20369;-46
2023/03/21 06:54:30;;;;;;;96.70;70.95;;;;;;;20.83;47.87;101175.72;5110002;28;20036;-48
2023/03/21 06:56:58;;;;;;;99.03;73.65;;;;;;;21.59;46.13;101181.31;5108455;28;20035;-46
2023/03/21 06:59:26;;;;;;;101.10;70.45;;;;;;;22.10;44.67;101176.53;5110228;28;20020;-47
2023/03/21 07:01:53;;;;;;;98.35;70.05;;;;;;;22.50;43.41;101182.72;5104173;28;20024;-47
2023/03/21 07:04:20;;;;;;;103.30;70.20;;;;;;;22.68;42.65;101178.72;5109802;28;20027;-48
2023/03/21 07:06:49;;;;;;;100.38;71.70;;;;;;;22.99;42.57;101182.88;5106660;28;20043;-48
2023/03/21 07:09:17;;;;;;;104.55;77.25;;;;;;;23.26;41.74;101184.31;5109697;28;20060;-48
2023/03/21 07:11:44;;;;;;;111.05;73.65;;;;;;;23.36;41.71;101183.66;5105824;28;20525;-47
2023/03/21 07:14:12;;;;;;;105.35;70.40;;;;;;;23.48;41.33;101190.88;5109461;28;20031;-45
2023/03/21 07:16:40;;;;;;;104.22;71.57;;;;;;;23.51;41.13;101192.66;5108902;28;20028;-48
2023/03/21 07:19:08;;;;;;;105.43;77.53;;;;;;;23.63;41.23;101190.25;5105314;28;20115;-48
2023/03/21 07:21:36;;;;;;;101.85;73.82;;;;;;;23.66;41.06;101203.41;5109453;28;20041;-48
2023/03/21 07:24:05;;;;;;;110.30;75.75;;;;;;;23.69;41.09;101204.31;5107452;28;20038;-48
2023/03/21 07:26:33;;;;;;;107.15;73.35;;;;;;;23.66;40.73;101203.41;5107089;28;20093;-49
2023/03/21 07:29:02;;;;;;;100.70;71.07;;;;;;;23.68;41.05;101206.03;5108936;28;20480;-48
2023/03/21 07:31:30;;;;;;;100.78;70.85;;;;;;;23.73;40.72;101206.16;5109152;28;20036;-47
2023/03/21 07:33:59;;;;;;;102.20;70.43;;;;;;;23.76;40.73;101209.69;5109061;28;20038;-48
2023/03/21 07:36:27;;;;;;;100.88;67.55;;;;;;;23.70;40.77;101200.84;5107135;28;20483;-47
2023/03/21 07:38:56;;;;;;;98.35;69.07;;;;;;;23.82;40.56;101216.78;5107719;28;20149;-48
2023/03/21 07:41:23;;;;;;;99.03;69.68;;;;;;;23.83;40.67;101214.16;5107794;28;20030;-47
2023/03/21 07:43:50;;;;;;;106.40;75.72;;;;;;;23.75;40.86;101215.78;5108693;28;20104;-47
2023/03/21 07:46:23;;;;;;;108.93;76.93;;;;;;;23.76;40.84;101227.13;5103288;28;20027;-48
2023/03/21 07:48:50;;;;;;;118.80;79.68;;;;;;;23.71;41.18;101227.06;5105677;28;20059;-47
2023/03/21 07:51:18;;;;;;;107.22;75.22;;;;;;;23.75;40.71;101225.38;5108950;28;20455;-49
2023/03/21 07:53:47;;;;;;;99.75;68.18;;;;;;;23.86;40.50;101222.94;5107842;28;20024;-48
2023/03/21 07:56:15;;;;;;;98.95;68.38;;;;;;;23.94;40.31;101230.06;5106600;28;20055;-47
2023/03/21 07:58:43;;;;;;;101.13;67.70;;;;;;;24.01;40.70;101227.59;5108146;28;20051;-46
2023/03/21 08:01:11;;;;;;;94.05;65.15;;;;;;;24.03;40.63;101221.53;5107183;28;20612;-46
2023/03/21 08:03:40;;;;;;;92.45;62.05;;;;;;;24.11;40.55;101224.28;5094513;28;20115;-47
2023/03/21 08:06:08;;;;;;;89.47;60.50;;;;;;;24.15;40.54;101230.47;5092745;28;20032;-46
2023/03/21 08:08:36;;;;;;;82.75;54.25;;;;;;;24.16;40.18;101234.84;5094414;28;20583;-47
2023/03/21 08:11:04;;;;;;;83.30;55.40;;;;;;;24.19;40.31;101230.53;5094780;28;20046;-48
2023/03/21 08:13:33;;;;;;;78.82;52.13;;;;;;;24.22;40.41;101227.06;5094842;28;20038;-46
2023/03/21 08:16:02;;;;;;;80.47;51.15;;;;;;;24.24;40.08;101228.84;5094230;28;20417;-47
2023/03/21 08:18:29;;;;;;;68.15;44.65;;;;;;;24.32;40.05;101229.00;5094856;28;20419;-46
2023/03/21 08:20:58;;;;;;;62.58;42.17;;;;;;;24.38;39.99;101229.09;5090972;28;20103;-46
2023/03/21 08:23:25;;;;;;;60.83;39.65;;;;;;;24.34;40.25;101223.78;5093120;28;20055;-47
2023/03/21 08:25:55;;;;;;;61.33;38.63;;;;;;;24.28;40.46;101227.19;5087683;28;20035;-46
2023/03/21 08:28:24;;;;;;;58.47;38.60;;;;;;;24.35;40.04;101231.66;5094154;28;20449;-46
2023/03/21 08:30:51;;;;;;;53.83;35.67;;;;;;;24.42;40.03;101235.25;5093684;28;20502;-48
2023/03/21 08:33:19;;;;;;;51.42;35.42;;;;;;;24.51;39.77;101234.50;5091925;28;20024;-49
2023/03/21 08:35:46;;;;;;;55.42;35.55;;;;;;;24.55;40.01;101246.81;5091194;28;20027;-46
2023/03/21 08:38:15;;;;;;;53.10;34.72;;;;;;;24.57;39.60;101251.22;5093584;28;20059;-46
2023/03/21 08:40:42;;;;;;;48.90;33.20;;;;;;;24.53;39.61;101261.63;5093425;28;20038;-48
2023/03/21 08:43:10;;;;;;;47.78;30.70;;;;;;;24.51;39.81;101261.63;5091841;28;20031;-46
2023/03/21 08:45:37;;;;;;;44.33;29.75;;;;;;;24.61;39.95;101257.41;5092919;28;20128;-46
2023/03/21 08:48:06;;;;;;;46.97;29.30;;;;;;;24.59;40.05;101259.13;5091042;28;20480;-48
2023/03/21 08:50:33;;;;;;;41.83;28.73;;;;;;;24.64;39.75;101260.09;5092617;28;20062;-52
2023/03/21 08:53:00;;;;;;;43.53;27.13;;;;;;;24.68;39.85;101263.63;5088906;28;20024;-47
2023/03/21 08:55:27;;;;;;;47.85;27.60;;;;;;;24.77;39.55;101262.91;5086654;28;20034;-48
2023/03/21 08:57:56;;;;;;;40.13;26.85;;;;;;;24.79;39.50;101261.19;5090635;28;20047;-46
2023/03/21 09:00:23;;;;;;;39.58;25.83;;;;;;;24.77;39.45;101262.91;5092687;28;20064;-47
2023/03/21 09:02:53;;;;;;;38.85;25.60;;;;;;;24.81;39.70;101264.72;5091101;28;20089;-49
2023/03/21 09:05:21;;;;;;;40.72;25.98;;;;;;;24.81;39.49;101270.84;5091920;28;20050;-47
2023/03/21 09:07:51;;;;;;;37.42;23.55;;;;;;;24.81;39.39;101265.59;5092464;28;20020;-49
2023/03/21 09:10:22;;;;;;;35.75;22.20;;;;;;;24.77;39.52;101273.41;5092742;28;20069;-50
2023/03/21 09:12:51;;;;;;;33.08;20.77;;;;;;;24.75;39.64;101267.25;5092105;28;20024;-48
2023/03/21 09:15:20;;;;;;;35.38;20.80;;;;;;;24.77;39.61;101258.53;5088123;28;20028;-47
2023/03/21 09:17:51;;;;;;;30.70;20.58;;;;;;;24.79;39.54;101266.44;5089445;28;20114;-48
2023/03/21 09:20:21;;;;;;;35.95;20.67;;;;;;;24.88;39.37;101271.81;5092682;28;20389;-47
2023/03/21 09:22:51;;;;;;;37.33;20.10;;;;;;;24.91;39.30;101269.22;5090483;28;20418;-47
2023/03/21 09:25:19;;;;;;;29.27;18.02;;;;;;;24.80;39.31;101263.81;5091937;28;20027;-49
2023/03/21 09:27:47;;;;;;;32.63;18.38;;;;;;;24.86;39.36;101257.78;5092351;28;20469;-48
2023/03/21 09:30:18;;;;;;;37.03;18.98;;;;;;;24.85;39.63;101262.16;5092279;28;20040;-47
2023/03/21 09:32:48;;;;;;;33.50;18.42;;;;;;;24.84;39.19;101256.88;5092922;28;20077;-50
2023/03/21 09:35:20;;;;;;;30.02;17.98;;;;;;;24.87;39.56;101262.16;5093282;28;20051;-48
2023/03/21 09:37:49;;;;;;;28.60;17.55;;;;;;;24.87;39.62;101264.78;5092494;28;20043;-49
2023/03/21 09:40:20;;;;;;;22.38;14.80;;;;;;;24.91;39.35;101256.09;5093086;28;20034;-49
2023/03/21 09:43:08;;;;;;;28.80;15.40;;;;;;;24.97;39.02;101261.44;5088636;28;20553;-48
2023/03/21 09:45:43;;;;;;;27.80;15.93;;;;;;;24.98;39.11;101257.97;5070722;28;20044;-48
2023/03/21 09:48:36;;;;;;;25.92;15.02;;;;;;;25.02;38.93;101265.00;5088377;28;20028;-48
2023/03/21 09:51:04;;;;;;;24.02;13.70;;;;;;;24.98;39.23;101257.97;5091546;28;20051;-47
2023/03/21 09:53:36;;;;;;;27.58;14.85;;;;;;;24.99;39.13;101250.97;5091247;28;20384;-48
2023/03/21 09:56:05;;;;;;;27.65;15.95;;;;;;;24.91;39.35;101240.38;5090587;28;20037;-48
2023/03/21 09:58:45;;;;;;;31.83;17.50;;;;;;;24.93;39.46;101250.88;5091224;28;20031;-49
2023/03/21 10:01:40;;;;;;;34.88;21.85;;;;;;;24.76;39.44;101225.28;5091614;28;20103;-46
2023/03/21 10:04:07;;;;;;;50.15;30.85;;;;;;;24.91;39.97;101257.84;5089007;28;20037;-48
2023/03/21 10:06:39;;;;;;;54.90;35.60;;;;;;;24.84;39.92;101254.25;5091345;28;20054;-47
2023/03/21 10:09:14;;;;;;;72.25;43.58;;;;;;;24.92;39.88;101256.97;5092430;28;20024;-49
2023/03/21 10:11:46;;;;;;;76.18;48.33;;;;;;;24.85;40.16;101254.28;5091353;28;20384;-48
2023/03/21 10:14:53;;;;;;;80.25;53.45;;;;;;;24.96;40.00;101261.41;5088449;28;20032;-49
2023/03/21 10:17:42;;;;;;;97.43;59.72;;;;;;;24.94;40.31;101260.50;5090099;28;20032;-47
2023/03/21 10:20:22;;;;;;;102.93;64.13;;;;;;;24.95;40.32;101255.28;5091386;28;20403;-46
2023/03/21 10:22:53;;;;;;;104.25;70.28;;;;;;;24.95;40.16;101254.41;5092227;28;20446;-49
2023/03/21 10:25:44;;;;;;;112.10;74.63;;;;;;;24.88;40.46;101245.56;5091293;28;20555;-49
2023/03/21 10:28:19;;;;;;;120.97;77.45;;;;;;;24.96;40.53;101262.31;5092157;28;20069;-49
2023/03/21 10:30:53;;;;;;;124.18;82.75;;;;;;;24.93;40.60;101259.63;5091251;28;20055;-49
2023/03/21 10:33:25;;;;;;;132.93;85.45;;;;;;;24.97;40.59;101261.44;5091179;28;20027;-49
2023/03/21 10:35:57;;;;;;;136.98;90.72;;;;;;;24.92;40.81;101257.88;5089668;28;20053;-48
2023/03/21 10:38:27;;;;;;;146.20;95.35;;;;;;;24.93;40.63;101264.88;5091487;28;20107;-51
2023/03/21 10:40:55;;;;;;;149.85;98.40;;;;;;;24.95;40.66;101271.03;5092298;28;20157;-49
2023/03/21 10:43:33;;;;;;;145.48;94.60;;;;;;;24.92;40.55;101273.63;5091791;28;20039;-47
2023/03/21 10:46:07;;;;;;;159.43;105.45;;;;;;;24.92;40.99;101275.34;5090434;28;20067;-48
2023/03/21 10:48:38;;;;;;;155.82;99.35;;;;;;;24.89;40.78;101270.94;5090322;28;20024;-49
2023/03/21 10:51:08;;;;;;;154.82;102.45;;;;;;;24.96;40.67;101264.94;5074546;28;20070;-47
2023/03/21 10:53:39;;;;;;;148.35;95.50;;;;;;;24.96;40.58;101278.06;5091933;28;20058;-47
2023/03/21 10:56:09;;;;;;;138.18;96.32;;;;;;;24.98;40.55;101264.94;5084413;28;20035;-50
2023/03/21 10:58:49;;;;;;;152.88;100.40;;;;;;;24.94;40.81;101269.28;5089765;28;20032;-51
2023/03/21 11:01:29;;;;;;;135.00;90.90;;;;;;;24.95;40.67;101272.78;5090929;28;20043;-48
2023/03/21 11:04:00;;;;;;;139.38;93.65;;;;;;;24.92;41.02;101275.34;5085051;28;20020;-47
2023/03/21 11:06:31;;;;;;;129.05;83.55;;;;;;;24.90;40.63;101267.47;5088468;28;20082;-47
2023/03/21 11:09:04;;;;;;;142.65;91.57;;;;;;;24.99;40.67;101280.69;5089839;28;20036;-51
2023/03/21 11:11:39;;;;;;;135.48;92.30;;;;;;;25.01;40.80;101276.34;5090052;28;20035;-48
2023/03/21 11:14:12;;;;;;;136.48;89.38;;;;;;;24.99;40.53;101267.56;5091143;28;20077;-50
2023/03/21 11:16:40;;;;;;;132.02;86.20;;;;;;;25.06;40.56;101292.19;5085934;28;20041;-48
2023/03/21 11:19:19;;;;;;;121.90;83.55;;;;;;;24.95;40.60;101289.41;5091207;28;20099;-51
2023/03/21 11:21:46;;;;;;;133.07;87.68;;;;;;;24.95;40.83;101292.03;5089884;28;20035;-51
2023/03/21 11:24:16;;;;;;;130.85;85.13;;;;;;;24.99;40.62;101295.59;5090449;28;20059;-50
2023/03/21 11:26:46;;;;;;;128.25;84.65;;;;;;;25.06;40.57;101296.53;5088656;28;20024;-48
2023/03/21 11:29:38;;;;;;;132.52;87.75;;;;;;;25.12;40.22;101283.50;5090856;28;20020;-50
2023/03/21 11:32:22;;;;;;;142.93;96.57;;;;;;;25.11;40.51;101282.63;5088490;28;20152;-50
2023/03/21 11:34:52;;;;;;;140.48;98.05;;;;;;;25.14;40.37;101287.03;5088179;28;20390;-49
2023/03/21 11:37:41;;;;;;;135.68;89.40;;;;;;;24.98;40.80;101283.31;5072759;28;20363;-48
2023/03/21 11:40:22;;;;;;;141.10;91.72;;;;;;;25.01;40.35;101275.50;5094287;28;20469;-52
2023/03/21 11:42:53;;;;;;;144.57;100.28;;;;;;;25.05;40.79;101274.69;5093962;28;20047;-48
2023/03/21 11:45:25;;;;;;;143.65;94.68;;;;;;;25.11;40.45;101279.13;5091588;28;20021;-49
2023/03/21 11:47:55;;;;;;;131.60;88.70;;;;;;;25.14;40.49;101273.91;5092974;28;20503;-48
2023/03/21 11:50:42;;;;;;;144.95;98.32;;;;;;;25.12;40.86;101278.25;5095127;28;20063;-49
2023/03/21 11:53:30;;;;;;;147.32;98.55;;;;;;;25.03;40.87;101276.41;5095386;28;20028;-52
2023/03/21 11:56:24;;;;;;;143.82;95.00;;;;;;;25.08;40.63;101279.06;5086638;28;20036;-48
2023/03/21 11:59:01;;;;;;;150.20;100.75;;;;;;;24.99;40.86;101275.44;5078812;28;20396;-49
2023/03/21 12:01:31;;;;;;;141.30;95.57;;;;;;;25.03;41.03;101273.78;5094921;28;20042;-47
2023/03/21 12:04:04;;;;;;;138.95;94.03;;;;;;;24.98;40.80;101267.56;5095420;28;20066;-51
2023/03/21 12:06:35;;;;;;;136.02;91.85;;;;;;;25.01;40.89;101271.09;5088097;28;20024;-47
2023/03/21 12:09:09;;;;;;;137.50;94.97;;;;;;;24.97;40.91;101271.94;5095320;28;20069;-51
2023/03/21 12:11:57;;;;;;;135.90;92.18;;;;;;;24.88;41.32;101277.06;5089963;28;20051;-47
2023/03/21 12:14:26;;;;;;;151.73;102.03;;;;;;;24.95;41.06;101281.53;5092308;28;20043;-51
2023/03/21 12:16:55;;;;;;;131.63;89.47;;;;;;;25.05;40.73;101274.69;5092152;28;20020;-49
2023/03/21 12:20:01;;;;;;;134.57;90.78;;;;;;;25.01;40.99;101273.72;5094402;28;20044;-47
2023/03/21 12:22:37;;;;;;;121.00;78.97;;;;;;;25.10;40.80;101285.22;5094381;28;20179;-47
2023/03/21 12:25:11;;;;;;;105.68;69.93;;;;;;;25.13;40.83;101277.41;5094440;28;20031;-50
2023/03/21 12:27:53;;;;;;;114.25;74.70;;;;;;;25.11;40.70;101273.88;5090603;28;20050;-51
2023/03/21 12:30:26;;;;;;;104.85;70.00;;;;;;;25.22;40.54;101271.38;5075220;28;20477;-49
2023/03/21 12:33:12;;;;;;;90.70;59.10;;;;;;;25.27;40.22;101278.47;5094245;28;20404;-53
2023/03/21 12:35:48;;;;;;;90.13;61.70;;;;;;;25.23;40.45;101270.53;5094049;28;20024;-52
2023/03/21 12:38:24;;;;;;;98.15;62.25;;;;;;;25.10;40.49;101269.47;5094078;28;20053;-48
2023/03/21 12:41:12;;;;;;;98.38;61.00;;;;;;;24.96;40.93;101264.94;5094509;28;20455;-53
2023/03/21 12:44:03;;;;;;;101.63;65.57;;;;;;;24.99;40.99;101258.84;5088139;28;20085;-47
2023/03/21 12:46:54;;;;;;;117.50;77.10;;;;;;;24.93;40.93;101262.25;5090660;28;20385;-51
2023/03/21 12:49:43;;;;;;;118.35;79.13;;;;;;;24.93;41.28;101256.13;5080683;28;20028;-49
2023/03/21 12:52:16;;;;;;;121.47;81.50;;;;;;;24.92;40.96;101268.38;5073279;28;20040;-48
2023/03/21 12:54:52;;;;;;;121.13;77.47;;;;;;;24.97;40.93;101261.44;5091105;28;20035;-48
2023/03/21 12:57:23;;;;;;;127.03;87.18;;;;;;;24.93;41.04;101264.00;5092543;28;20469;-49
2023/03/21 12:59:59;;;;;;;126.82;87.85;;;;;;;24.92;41.40;101264.84;5093353;28;20047;-50
2023/03/21 13:02:33;;;;;;;134.40;89.00;;;;;;;24.93;41.03;101264.88;5093953;28;20028;-49
2023/03/21 13:05:26;;;;;;;121.68;83.90;;;;;;;24.93;41.02;101262.25;5092383;28;20027;-51
2023/03/21 13:08:01;;;;;;;129.68;88.80;;;;;;;25.12;40.92;101265.13;5085091;28;20047;-52
2023/03/21 13:10:29;;;;;;;121.90;84.43;;;;;;;25.13;40.65;101259.91;5094630;28;20373;-52
2023/03/21 13:13:19;;;;;;;146.32;98.57;;;;;;;25.03;40.85;101272.00;5094930;28;20168;-49
2023/03/21 13:15:55;;;;;;;119.47;82.10;;;;;;;24.95;41.17;101260.53;5093377;28;20465;-50
2023/03/21 13:18:43;;;;;;;115.15;80.65;;;;;;;25.08;41.18;101258.06;5095084;28;20488;-52
2023/03/21 13:21:15;;;;;;;100.90;68.45;;;;;;;25.00;41.04;101257.97;5091036;28;20039;-46
2023/03/21 13:23:59;;;;;;;113.03;75.88;;;;;;;25.02;41.14;101261.50;5094174;28;20461;-48
2023/03/21 13:26:49;;;;;;;113.07;76.37;;;;;;;25.13;40.75;101261.66;5094625;28;20554;-49
2023/03/21 13:29:29;;;;;;;113.20;75.82;;;;;;;24.99;41.07;101254.44;5093143;28;20035;-52
2023/03/21 13:32:10;;;;;;;95.88;65.22;;;;;;;25.03;40.89;101258.88;5093060;28;20032;-47
2023/03/21 13:34:39;;;;;;;85.85;57.80;;;;;;;25.08;40.87;101245.81;5094300;28;20028;-46
2023/03/21 13:37:15;;;;;;;96.28;65.35;;;;;;;25.24;40.83;101251.25;5092539;28;20465;-48
2023/03/21 13:39:46;;;;;;;95.57;62.15;;;;;;;25.28;40.60;101250.44;5094440;28;20078;-48
2023/03/21 13:42:32;;;;;;;87.57;56.85;;;;;;;25.26;40.86;101247.81;5092857;28;20024;-48
2023/03/21 13:45:02;;;;;;;82.15;53.95;;;;;;;25.29;40.79;101246.94;5092805;28;20152;-46
2023/03/21 13:47:51;;;;;;;75.63;50.45;;;;;;;25.32;40.72;101237.34;5092910;28;20392;-47
2023/03/21 13:50:20;;;;;;;77.93;51.42;;;;;;;25.37;40.62;101239.16;5093595;28;20048;-49
2023/03/21 13:53:17;;;;;;;76.50;51.20;;;;;;;25.34;40.88;101225.13;5094021;28;20481;-46
2023/03/21 13:55:46;;;;;;;60.03;37.45;;;;;;;25.38;40.67;101218.19;5087199;28;20199;-48
2023/03/21 13:58:37;;;;;;;52.97;34.28;;;;;;;25.31;40.69;101218.97;5093851;28;20358;-48
2023/03/21 14:01:27;;;;;;;48.38;28.00;;;;;;;25.40;40.44;101218.19;5093678;28;20457;-49
2023/03/21 14:04:16;;;;;;;44.33;23.13;;;;;;;25.30;40.59;101228.59;5088066;28;20044;-49
2023/03/21 14:07:06;;;;;;;35.15;19.02;;;;;;;25.18;40.93;101215.31;5092439;28;20020;-48
2023/03/21 14:09:44;;;;;;;37.70;19.58;;;;;;;25.12;41.03;101226.63;5087593;28;20032;-46
2023/03/21 14:12:16;;;;;;;32.78;18.30;;;;;;;25.09;41.01;101225.72;5093267;28;20032;-48
2023/03/21 14:14:48;;;;;;;38.78;20.23;;;;;;;25.11;41.03;101232.75;5093744;28;20389;-48
2023/03/21 14:17:36;;;;;;;34.70;20.98;;;;;;;25.11;40.86;101227.50;5092182;28;20024;-47
2023/03/21 14:20:16;;;;;;;41.35;24.92;;;;;;;25.09;41.02;101208.22;5093645;28;20385;-49
2023/03/21 14:22:47;;;;;;;46.33;28.27;;;;;;;25.12;41.20;101213.50;5093610;28;20031;-52
2023/03/21 14:25:18;;;;;;;49.65;31.08;;;;;;;25.14;41.12;101209.16;5091864;28;20028;-46
2023/03/21 14:27:51;;;;;;;57.95;35.45;;;;;;;25.17;41.20;101201.31;5093409;28;20103;-46
2023/03/21 14:30:34;;;;;;;65.32;42.28;;;;;;;25.15;41.16;101187.28;5093506;28;20056;-47
2023/03/21 14:33:11;;;;;;;65.30;40.50;;;;;;;25.17;41.13;101187.28;5092793;28;20529;-48
2023/03/21 14:35:41;;;;;;;70.45;44.25;;;;;;;25.14;41.15;101188.16;5093289;28;20028;-52
2023/03/21 14:38:20;;;;;;;69.07;45.67;;;;;;;25.14;41.07;101180.28;5093433;28;20106;-48
2023/03/21 14:40:51;;;;;;;70.60;47.55;;;;;;;25.16;41.09;101185.53;5093223;28;20082;-47
2023/03/21 14:43:22;;;;;;;68.22;44.20;;;;;;;25.20;41.30;101179.47;5092962;28;20024;-48
2023/03/21 14:45:53;;;;;;;74.70;49.60;;;;;;;25.21;41.09;101178.59;5093212;28;20024;-47
2023/03/21 14:48:31;;;;;;;74.68;47.83;;;;;;;25.21;41.36;101183.84;5092751;28;20032;-48
2023/03/21 14:51:05;;;;;;;77.40;50.05;;;;;;;25.17;41.16;101172.44;5092759;28;20040;-46
2023/03/21 14:53:37;;;;;;;78.50;51.47;;;;;;;25.16;41.06;101178.56;5092849;28;20021;-51
2023/03/21 14:56:25;;;;;;;77.50;52.78;;;;;;;25.14;41.04;101174.16;5093172;28;20032;-48
2023/03/21 14:58:55;;;;;;;79.53;51.65;;;;;;;25.16;40.79;101165.44;5076018;28;20047;-48
2023/03/21 15:01:29;;;;;;;77.30;56.58;;;;;;;25.13;40.99;101161.91;5093485;28;20024;-48
2023/03/21 15:03:57;;;;;;;;;;;;;;;25.14;40.97;101166.28;5093633;28;20039;-46
2023/03/21 15:06:26;;;;;;;97.25;68.05;;;;;;;25.12;41.13;101158.38;5093051;28;19911;-48
2023/03/21 15:09:01;;;;;;;98.30;68.63;;;;;;;25.06;41.09;101153.06;5092555;28;20392;-48
2023/03/21 15:11:39;;;;;;;121.82;88.03;;;;;;;25.08;41.12;101168.81;5091337;28;20032;-48
2023/03/21 15:14:09;;;;;;;103.93;72.63;;;;;;;25.07;41.10;101167.94;5097080;28;20024;-46
2023/03/21 15:16:38;;;;;;;104.50;69.25;;;;;;;25.09;40.93;101175.84;5097032;28;20030;-48
2023/03/21 15:19:08;;;;;;;126.30;88.85;;;;;;;25.07;41.42;101172.31;5096900;28;20028;-48
2023/03/21 15:21:38;;;;;;;103.95;71.93;;;;;;;25.01;41.18;101157.38;5096839;28;20028;-48
2023/03/21 15:24:14;;;;;;;164.27;117.57;;;;;;;25.03;41.19;101161.78;5096011;28;20027;-47
2023/03/21 15:26:46;;;;;;;108.95;77.75;;;;;;;25.13;40.89;101156.66;5096868;28;20513;-49
2023/03/21 15:29:16;;;;;;;137.77;98.85;;;;;;;25.11;41.09;101158.38;5096612;28;20028;-49
2023/03/21 15:31:46;;;;;;;122.45;85.97;;;;;;;25.11;40.92;101155.75;5095360;28;20032;-48
2023/03/21 15:34:26;;;;;;;143.18;104.93;;;;;;;25.03;41.38;101159.16;5095406;28;20024;-48
2023/03/21 15:37:03;;;;;;;151.77;107.43;;;;;;;25.08;41.19;101155.69;5095779;28;20028;-47
2023/03/21 15:39:33;;;;;;;127.05;91.40;;;;;;;25.11;40.84;101151.38;5095229;28;20066;-47
2023/03/21 15:42:26;;;;;;;120.88;85.63;;;;;;;25.12;40.89;101144.38;5095050;28;20081;-47
2023/03/21 15:44:57;;;;;;;126.93;89.22;;;;;;;25.07;40.88;101144.31;5096290;28;20085;-48
2023/03/21 15:47:48;;;;;;;121.05;85.82;;;;;;;25.03;40.96;101140.78;5096545;28;20024;-47
2023/03/21 15:50:25;;;;;;;104.43;73.07;;;;;;;25.04;40.85;101136.44;5090479;28;20506;-48
2023/03/21 15:52:54;;;;;;;111.72;78.65;;;;;;;25.07;40.98;101153.94;5096361;28;20032;-52
2023/03/21 15:55:40;;;;;;;112.75;79.63;;;;;;;24.97;40.66;101137.19;5096177;28;20107;-44
2023/03/21 15:58:15;;;;;;;112.13;77.35;;;;;;;25.00;40.78;101137.25;5095023;28;20032;-46
2023/03/21 16:00:49;;;;;;;126.20;88.10;;;;;;;24.99;41.10;101133.72;5096540;28;20423;-47
2023/03/21 16:03:21;;;;;;;128.23;93.43;;;;;;;25.00;41.18;101134.63;5094703;28;20437;-47
2023/03/21 16:06:13;;;;;;;132.73;89.68;;;;;;;25.24;40.45;101135.72;5096102;28;20492;-49
2023/03/21 16:08:53;;;;;;;128.45;89.07;;;;;;;25.22;40.51;101133.09;5091138;28;20076;-47
2023/03/21 16:11:27;;;;;;;128.10;89.57;;;;;;;25.29;40.32;101134.94;5096048;28;20081;-47
2023/03/21 16:13:56;;;;;;;125.43;90.00;;;;;;;25.28;40.41;101124.41;5096180;28;20136;-48
2023/03/21 16:16:26;;;;;;;141.20;100.85;;;;;;;25.17;40.88;101122.56;5094598;28;20472;-48
2023/03/21 16:18:56;;;;;;;142.13;100.13;;;;;;;25.19;40.54;101119.94;5095486;28;20039;-51
2023/03/21 16:21:27;;;;;;;153.57;110.80;;;;;;;25.14;40.69;101117.28;5095471;28;20111;-46
2023/03/21 16:23:57;;;;;;;142.80;104.90;;;;;;;25.17;40.68;101117.31;5095456;28;20020;-52
2023/03/21 16:26:28;;;;;;;151.82;108.93;;;;;;;25.30;40.30;101120.94;5095800;28;20035;-52
2023/03/21 16:28:56;;;;;;;156.82;111.28;;;;;;;25.26;40.65;101113.91;5095842;28;20027;-51
2023/03/21 16:31:27;;;;;;;164.93;117.45;;;;;;;25.25;40.80;101106.00;5095462;28;20389;-52
2023/03/21 16:33:56;;;;;;;188.13;139.00;;;;;;;25.17;41.21;101106.81;5095448;28;20028;-49
2023/03/21 16:36:28;;;;;;;186.38;135.50;;;;;;;25.07;41.14;101107.56;5095481;28;20366;-52
2023/03/21 16:38:57;;;;;;;191.02;142.80;;;;;;;25.13;40.84;101098.91;5094584;28;20055;-50
2023/03/21 16:41:26;;;;;;;185.65;135.18;;;;;;;25.13;41.15;101096.28;5095411;28;20099;-51
2023/03/21 16:43:55;;;;;;;190.48;136.00;;;;;;;25.15;40.80;101100.66;5094713;28;20020;-53
2023/03/21 16:46:26;;;;;;;192.57;140.65;;;;;;;25.13;41.10;101104.16;5095107;28;20390;-51
2023/03/21 16:48:54;;;;;;;193.93;139.43;;;;;;;25.24;41.30;101096.34;5090938;28;20021;-50
2023/03/21 16:51:28;;;;;;;207.23;152.23;;;;;;;25.15;41.01;101105.91;5072826;28;20419;-50
2023/03/21 16:53:57;;;;;;;194.52;140.65;;;;;;;25.16;41.15;101096.28;5094398;28;20539;-49
2023/03/21 16:56:27;;;;;;;192.40;140.07;;;;;;;25.22;40.86;101093.72;5094581;28;20031;-49
2023/03/21 16:58:56;;;;;;;187.38;138.95;;;;;;;25.34;40.45;101095.59;5092984;28;20346;-51
2023/03/21 17:01:28;;;;;;;206.32;151.60;;;;;;;25.38;40.74;101084.25;5094478;28;20047;-47
2023/03/21 17:03:57;;;;;;;197.65;143.27;;;;;;;25.19;40.81;101083.19;5094335;28;20516;-48
2023/03/21 17:06:27;;;;;;;194.93;146.27;;;;;;;25.16;40.93;101091.91;5094111;28;20069;-46
2023/03/21 17:08:57;;;;;;;209.15;148.20;;;;;;;25.22;41.02;101091.09;5093368;28;20024;-46
2023/03/21 17:11:31;;;;;;;197.50;146.60;;;;;;;25.26;40.87;101095.53;5093956;28;20562;-46
2023/03/21 17:14:00;;;;;;;205.15;153.93;;;;;;;25.32;40.51;101100.81;5093733;28;20032;-47
2023/03/21 17:16:28;;;;;;;203.18;148.50;;;;;;;25.31;40.55;101099.09;5092662;28;20024;-48
2023/03/21 17:18:56;;;;;;;201.10;147.98;;;;;;;25.27;40.84;101113.03;5090245;28;20043;-48
2023/03/21 17:21:27;;;;;;;208.07;149.48;;;;;;;25.25;40.74;101108.63;5092347;28;20095;-49
2023/03/21 17:23:55;;;;;;;209.25;152.35;;;;;;;25.21;40.55;101112.97;5092875;28;20028;-49
2023/03/21 17:26:29;;;;;;;206.02;153.05;;;;;;;25.15;41.20;101113.78;5089828;28;20077;-48
2023/03/21 17:28:58;;;;;;;241.73;176.00;;;;;;;25.17;41.04;101100.66;5092849;28;20439;-49
2023/03/21 17:31:27;;;;;;;257.40;196.68;;;;;;;25.15;41.31;101108.53;5087742;28;20024;-48
2023/03/21 17:33:56;;;;;;;244.35;180.15;;;;;;;25.13;41.53;101109.41;5091386;28;20039;-50
2023/03/21 17:36:29;;;;;;;240.00;177.80;;;;;;;25.15;41.39;101110.28;5090518;28;20039;-48
2023/03/21 17:38:57;;;;;;;214.65;160.20;;;;;;;25.20;40.88;101103.31;5091055;28;20036;-49
2023/03/21 17:41:24;;;;;;;244.27;184.48;;;;;;;25.24;41.21;101106.84;5091649;28;20046;-47
2023/03/21 17:43:51;;;;;;;256.73;189.65;;;;;;;25.13;41.75;101101.53;5089150;28;20031;-49
2023/03/21 17:46:21;;;;;;;239.15;177.10;;;;;;;25.15;41.38;101102.41;5091320;28;20036;-50
2023/03/21 17:48:49;;;;;;;228.70;170.40;;;;;;;25.17;41.16;101100.66;5090259;28;20116;-48
2023/03/21 17:51:16;;;;;;;233.90;170.38;;;;;;;25.20;41.19;101097.22;5091324;28;20120;-50
2023/03/21 17:53:44;;;;;;;241.52;188.32;;;;;;;25.21;41.14;101081.47;5091938;28;20028;-49
2023/03/21 17:56:15;;;;;;;248.88;185.48;;;;;;;25.22;41.20;101079.72;5092429;28;20016;-48
2023/03/21 17:58:43;;;;;;;225.95;163.70;;;;;;;25.17;40.87;101075.31;5091272;28;20085;-48
2023/03/21 18:01:10;;;;;;;213.57;157.93;;;;;;;25.19;40.82;101075.31;5089470;28;20431;-47
2023/03/21 18:03:38;;;;;;;230.82;170.25;;;;;;;25.17;41.01;101083.19;5091904;28;20161;-47
2023/03/21 18:06:06;;;;;;;232.18;175.93;;;;;;;25.13;41.13;101080.53;5092293;28;20028;-48
2023/03/21 18:08:33;;;;;;;224.75;168.70;;;;;;;25.21;40.94;101091.97;5090128;28;20016;-48
2023/03/21 18:11:00;;;;;;;229.77;163.48;;;;;;;25.16;40.93;101085.78;5090728;28;20039;-49
2023/03/21 18:13:27;;;;;;;235.02;174.63;;;;;;;25.16;40.83;101093.66;5090937;28;20020;-50
2023/03/21 18:15:54;;;;;;;239.25;171.88;;;;;;;25.19;40.76;101080.56;5092064;28;20366;-48
2023/03/21 18:18:22;;;;;;;229.18;167.20;;;;;;;25.22;40.80;101083.22;5091079;28;20101;-48
2023/03/21 18:20:49;;;;;;;257.15;189.88;;;;;;;25.21;40.94;101080.59;5091105;28;20035;-50